Time;durP1;ratioP1;P1;durP2;ratioP2;P2;SDS_P1;SDS_P2;PMS_P1;PMS_P2;Temp;Humidity;BMP_temperature;BMP_pressure;BME280_temperature;BME280_humidity;BME280_pressure;Samples;Min_cycle;Max_cycle;Signal;HPM_P1;HPM_P2
2021/08/03 00:00:00;;;;;;;1.90;1.80;;;15.80;99.90;;;;;;5036174;28;20206;-69
2021/08/03 00:02:27;;;;;;;2.22;2.03;;;15.80;99.90;;;;;;5036253;28;20297;-69
2021/08/03 00:04:58;;;;;;;2.05;1.85;;;15.90;99.90;;;;;;5036189;28;20212;-69
2021/08/03 00:07:26;;;;;;;1.55;1.45;;;15.80;99.90;;;;;;5036706;28;20227;-69
2021/08/03 00:09:56;;;;;;;2.47;2.28;;;15.90;99.90;;;;;;5036353;28;20213;-69
2021/08/03 00:12:24;;;;;;;2.53;2.33;;;15.90;99.90;;;;;;5036344;28;20223;-69
2021/08/03 00:14:53;;;;;;;2.47;2.28;;;15.90;99.90;;;;;;5036053;28;20573;-69
2021/08/03 00:17:22;;;;;;;9.40;2.60;;;15.90;99.90;;;;;;5035823;28;20256;-69
2021/08/03 00:19:49;;;;;;;2.35;2.15;;;16.00;99.90;;;;;;5036193;28;20241;-69
2021/08/03 00:22:16;;;;;;;2.13;2.03;;;16.00;99.90;;;;;;5036061;28;20209;-69
2021/08/03 00:24:44;;;;;;;1.70;1.60;;;16.00;99.90;;;;;;5035984;28;20572;-69
2021/08/03 00:27:12;;;;;;;2.10;1.90;;;16.00;99.90;;;;;;5035897;28;20664;-68
2021/08/03 00:29:39;;;;;;;2.30;2.10;;;16.10;99.90;;;;;;5035948;28;20302;-69
2021/08/03 00:32:07;;;;;;;2.50;2.15;;;16.00;99.90;;;;;;5035808;28;20321;-69
2021/08/03 00:34:37;;;;;;;3.30;2.15;;;16.00;99.90;;;;;;5035847;28;20210;-68
2021/08/03 00:37:06;;;;;;;2.60;2.40;;;15.90;99.90;;;;;;5035727;28;20227;-68
2021/08/03 00:39:33;;;;;;;2.45;2.25;;;15.70;99.90;;;;;;5035718;28;20201;-69
2021/08/03 00:42:02;;;;;;;3.00;2.55;;;15.50;99.90;;;;;;5035770;28;20204;-69
2021/08/03 00:44:42;;;;;;;2.35;2.15;;;15.50;99.90;;;;;;5035447;28;20213;-69
2021/08/03 00:47:09;;;;;;;7.50;2.92;;;15.50;99.90;;;;;;5035562;28;20269;-69
2021/08/03 00:49:36;;;;;;;2.22;2.00;;;15.60;99.90;;;;;;5035004;28;20672;-69
2021/08/03 00:52:04;;;;;;;2.28;2.08;;;15.70;99.90;;;;;;5035378;28;20314;-69
2021/08/03 00:54:31;;;;;;;2.42;2.22;;;15.80;99.90;;;;;;5035485;28;20577;-69
2021/08/03 00:57:00;;;;;;;2.30;2.10;;;15.80;99.90;;;;;;5034992;28;20692;-69
2021/08/03 00:59:27;;;;;;;2.55;1.98;;;15.90;99.90;;;;;;5035425;28;20297;-68
2021/08/03 01:01:55;;;;;;;2.40;2.20;;;15.90;99.90;;;;;;5035575;28;20230;-68
2021/08/03 01:04:22;;;;;;;2.42;2.20;;;15.90;99.90;;;;;;5035221;28;20298;-69
2021/08/03 01:06:56;;;;;;;2.70;2.50;;;15.90;99.90;;;;;;5035003;28;20665;-69
2021/08/03 01:09:31;;;;;;;2.53;2.33;;;15.80;99.90;;;;;;5035471;28;20194;-68
2021/08/03 01:12:05;;;;;;;2.40;2.20;;;15.80;99.90;;;;;;5035175;28;20231;-69
2021/08/03 01:14:37;;;;;;;3.00;2.38;;;15.70;99.90;;;;;;5035098;28;20216;-68
2021/08/03 01:17:13;;;;;;;2.45;2.25;;;15.60;99.90;;;;;;5034666;28;20239;-69
2021/08/03 01:19:49;;;;;;;2.42;2.22;;;15.50;99.90;;;;;;5035048;28;20214;-69
2021/08/03 01:22:37;;;;;;;2.70;1.92;;;15.60;99.90;;;;;;5034985;28;20202;-68
2021/08/03 01:25:15;;;;;;;4.05;2.70;;;15.70;99.90;;;;;;5034715;28;20294;-69
2021/08/03 01:28:11;;;;;;;2.20;2.00;;;15.70;99.90;;;;;;5034927;28;20233;-68
2021/08/03 01:30:40;;;;;;;2.30;2.10;;;15.70;99.90;;;;;;5034661;28;20682;-69
2021/08/03 01:33:08;;;;;;;2.50;2.30;;;15.50;99.90;;;;;;5035047;28;20231;-68
2021/08/03 01:35:36;;;;;;;2.50;2.30;;;15.50;99.90;;;;;;5034350;28;20202;-69
2021/08/03 01:38:05;;;;;;;2.17;1.98;;;15.70;99.90;;;;;;5034515;28;20708;-69
2021/08/03 01:40:32;;;;;;;2.20;2.00;;;15.70;99.90;;;;;;5034580;28;20209;-69
2021/08/03 01:43:02;;;;;;;2.55;2.17;;;15.60;99.90;;;;;;5034375;28;20202;-68
2021/08/03 01:45:32;;;;;;;1.95;1.75;;;15.60;99.90;;;;;;5034293;28;20211;-69
2021/08/03 01:48:01;;;;;;;2.22;1.95;;;15.70;99.90;;;;;;5034341;28;20235;-69
2021/08/03 01:50:29;;;;;;;2.60;2.40;;;15.80;99.90;;;;;;5034412;28;20210;-69
2021/08/03 01:52:58;;;;;;;2.72;2.45;;;15.70;99.90;;;;;;5034402;28;20223;-69
2021/08/03 01:55:27;;;;;;;2.42;2.20;;;15.70;99.90;;;;;;5033904;28;20297;-69
2021/08/03 01:57:55;;;;;;;2.10;1.95;;;15.70;99.90;;;;;;5034050;28;20256;-68
2021/08/03 02:00:22;;;;;;;2.40;1.90;;;15.70;99.90;;;;;;5033314;28;20569;-68
2021/08/03 02:02:51;;;;;;;1.90;1.80;;;15.70;99.90;;;;;;5034188;28;20225;-69
2021/08/03 02:05:18;;;;;;;2.33;2.10;;;15.60;99.90;;;;;;5033954;28;20207;-69
2021/08/03 02:07:45;;;;;;;2.40;2.20;;;15.50;99.90;;;;;;5034119;28;20584;-69
2021/08/03 02:10:13;;;;;;;2.22;2.03;;;15.40;99.90;;;;;;5034041;28;20209;-68
2021/08/03 02:12:41;;;;;;;2.38;2.17;;;15.40;99.90;;;;;;5033959;28;20233;-69
2021/08/03 02:15:10;;;;;;;2.85;2.17;;;15.50;99.90;;;;;;5033755;28;20214;-69
2021/08/03 02:17:38;;;;;;;1.75;1.65;;;15.40;99.90;;;;;;5033611;28;20241;-69
2021/08/03 02:20:08;;;;;;;2.20;1.98;;;15.30;99.90;;;;;;5033914;28;20207;-69
2021/08/03 02:22:35;;;;;;;1.88;1.77;;;15.30;99.90;;;;;;5033897;28;20199;-68
2021/08/03 02:25:02;;;;;;;1.95;1.85;;;15.30;99.90;;;;;;5033667;28;20731;-68
2021/08/03 02:27:29;;;;;;;2.10;2.00;;;15.40;99.90;;;;;;5033914;28;20222;-68
2021/08/03 02:29:57;;;;;;;2.00;1.90;;;15.50;99.90;;;;;;5033747;28;20210;-69
2021/08/03 02:32:28;;;;;;;2.17;1.92;;;15.50;99.90;;;;;;5033634;28;20315;-68
2021/08/03 02:34:58;;;;;;;2.58;2.38;;;15.50;99.90;;;;;;5033558;28;20214;-68
2021/08/03 02:37:31;;;;;;;2.35;2.10;;;15.60;99.90;;;;;;5033567;28;20231;-69
2021/08/03 02:40:00;;;;;;;2.60;2.40;;;15.50;99.90;;;;;;5033459;28;20640;-68
2021/08/03 02:42:28;;;;;;;2.10;2.00;;;15.50;99.90;;;;;;5033560;28;20202;-69
2021/08/03 02:45:00;;;;;;;2.60;2.40;;;15.40;99.90;;;;;;5033340;28;20703;-69
2021/08/03 02:47:30;;;;;;;2.35;2.15;;;15.30;99.90;;;;;;5033531;28;20316;-69
2021/08/03 02:50:06;;;;;;;1.95;1.85;;;15.30;99.90;;;;;;5033702;28;20197;-68
2021/08/03 02:52:37;;;;;;;1.95;1.73;;;15.30;99.90;;;;;;5033358;28;20232;-69
2021/08/03 02:55:10;;;;;;;2.10;1.90;;;15.30;99.90;;;;;;5033271;28;20218;-69
2021/08/03 02:57:38;;;;;;;2.30;2.00;;;15.50;99.90;;;;;;5033471;28;20263;-68
2021/08/03 03:00:07;;;;;;;2.65;2.20;;;15.50;99.90;;;;;;5033423;28;20569;-69
2021/08/03 03:02:37;;;;;;;2.60;2.10;;;15.50;99.90;;;;;;5033537;28;20249;-69
2021/08/03 03:05:09;;;;;;;3.13;2.08;;;15.50;99.90;;;;;;5033195;28;20619;-69
2021/08/03 03:07:41;;;;;;;1.90;1.70;;;15.40;99.90;;;;;;5033306;28;20337;-69
2021/08/03 03:10:14;;;;;;;2.50;2.30;;;15.40;99.90;;;;;;5033393;28;20211;-69
2021/08/03 03:12:44;;;;;;;2.75;2.33;;;15.40;99.90;;;;;;5036797;28;20228;-68
2021/08/03 03:15:15;;;;;;;2.50;2.30;;;15.50;99.90;;;;;;5037100;28;20622;-69
2021/08/03 03:17:42;;;;;;;2.58;2.35;;;15.50;99.90;;;;;;5036862;28;20234;-68
2021/08/03 03:20:10;;;;;;;2.25;2.05;;;15.50;99.90;;;;;;5037200;28;20203;-68
2021/08/03 03:22:43;;;;;;;2.17;1.90;;;15.50;99.90;;;;;;5037259;28;20210;-69
2021/08/03 03:25:12;;;;;;;2.50;2.30;;;15.50;99.90;;;;;;5036841;28;20211;-68
2021/08/03 03:27:40;;;;;;;2.92;2.40;;;15.30;99.90;;;;;;5037095;28;20222;-69
2021/08/03 03:30:08;;;;;;;2.53;2.20;;;15.30;99.90;;;;;;5036848;28;20221;-68
2021/08/03 03:32:36;;;;;;;2.40;2.00;;;15.40;99.90;;;;;;5036905;28;20229;-69
2021/08/03 03:35:04;;;;;;;2.72;2.33;;;15.40;99.90;;;;;;5036759;28;20214;-69
2021/08/03 03:37:32;;;;;;;2.33;2.13;;;15.40;99.90;;;;;;5036924;28;20575;-69
2021/08/03 03:40:00;;;;;;;2.10;1.90;;;15.50;99.90;;;;;;5036945;28;20206;-68
2021/08/03 03:42:31;;;;;;;2.28;2.17;;;15.40;99.90;;;;;;5036805;28;20209;-68
2021/08/03 03:44:58;;;;;;;2.50;2.30;;;15.40;99.90;;;;;;5036581;28;20207;-69
2021/08/03 03:47:29;;;;;;;2.53;2.33;;;15.30;99.90;;;;;;5036710;28;20222;-69
2021/08/03 03:50:00;;;;;;;2.42;2.22;;;15.20;99.90;;;;;;5036739;28;20210;-68
2021/08/03 03:52:37;;;;;;;2.28;2.08;;;15.20;99.90;;;;;;5036617;28;20226;-68
2021/08/03 03:55:06;;;;;;;3.38;2.30;;;15.10;99.90;;;;;;5036462;28;20684;-69
2021/08/03 03:57:34;;;;;;;2.10;1.90;;;15.10;99.90;;;;;;5036399;28;20701;-68
2021/08/03 04:00:02;;;;;;;2.30;2.10;;;15.20;99.90;;;;;;5036522;28;20220;-69
2021/08/03 04:02:30;;;;;;;3.60;2.60;;;15.20;99.90;;;;;;5036473;28;20549;-68
2021/08/03 04:04:59;;;;;;;2.15;2.00;;;15.20;99.90;;;;;;5036255;28;20213;-69
2021/08/03 04:07:26;;;;;;;2.40;2.20;;;15.30;99.90;;;;;;5036333;28;20261;-69
2021/08/03 04:10:02;;;;;;;1.80;1.63;;;15.40;99.90;;;;;;5036356;28;20703;-69
2021/08/03 04:12:30;;;;;;;1.83;1.65;;;15.40;99.90;;;;;;5036261;28;20226;-69
2021/08/03 04:14:57;;;;;;;1.95;1.85;;;15.40;99.90;;;;;;5035836;28;20672;-69
2021/08/03 04:17:23;;;;;;;2.83;2.17;;;15.40;99.90;;;;;;5036186;28;20229;-69
2021/08/03 04:19:50;;;;;;;2.33;1.90;;;15.30;99.90;;;;;;5036151;28;20764;-68
2021/08/03 04:22:17;;;;;;;2.10;1.90;;;15.30;99.90;;;;;;5035941;28;20208;-69
2021/08/03 04:24:44;;;;;;;2.03;1.92;;;15.20;99.90;;;;;;5035376;28;20206;-70
2021/08/03 04:27:11;;;;;;;2.65;1.98;;;15.20;99.90;;;;;;5035902;28;20229;-69
2021/08/03 04:29:39;;;;;;;2.03;1.90;;;15.20;99.90;;;;;;5036006;28;20203;-69
2021/08/03 04:32:06;;;;;;;2.65;2.13;;;15.30;99.90;;;;;;5035734;28;20205;-68
2021/08/03 04:34:33;;;;;;;1.67;1.58;;;15.20;99.90;;;;;;5035900;28;20214;-68
2021/08/03 04:37:01;;;;;;;2.15;2.03;;;15.20;99.90;;;;;;5035518;28;20210;-69
2021/08/03 04:39:28;;;;;;;2.10;1.77;;;15.30;99.90;;;;;;5035812;28;20214;-69
2021/08/03 04:41:55;;;;;;;2.20;2.00;;;15.20;99.90;;;;;;5035524;28;20213;-69
2021/08/03 04:44:22;;;;;;;3.85;2.30;;;15.10;99.90;;;;;;5035703;28;20292;-68
2021/08/03 04:46:50;;;;;;;2.88;2.50;;;15.00;99.90;;;;;;5035444;28;20211;-69
2021/08/03 04:49:17;;;;;;;2.40;2.20;;;14.80;99.90;;;;;;5035649;28;20204;-69
2021/08/03 04:51:44;;;;;;;2.15;1.95;;;14.90;99.90;;;;;;5035496;28;20300;-69
2021/08/03 04:54:10;;;;;;;2.90;2.20;;;14.90;99.90;;;;;;5035453;28;20225;-69
2021/08/03 04:56:37;;;;;;;2.20;2.10;;;15.10;99.90;;;;;;5035312;28;20206;-69
2021/08/03 04:59:04;;;;;;;2.67;2.25;;;15.10;99.90;;;;;;5035414;28;20336;-68
2021/08/03 05:01:31;;;;;;;2.47;2.28;;;15.10;99.90;;;;;;5035390;28;20291;-68
2021/08/03 05:04:00;;;;;;;2.65;2.45;;;15.10;99.90;;;;;;5035307;28;20297;-69
2021/08/03 05:06:27;;;;;;;2.80;2.58;;;15.00;99.90;;;;;;5035126;28;20202;-69
2021/08/03 05:08:53;;;;;;;4.65;2.40;;;15.00;99.90;;;;;;5035530;28;20226;-68
2021/08/03 05:11:20;;;;;;;3.72;2.30;;;15.00;99.90;;;;;;5035021;28;20209;-68
2021/08/03 05:13:47;;;;;;;2.80;2.50;;;15.00;99.90;;;;;;5034961;28;20232;-68
2021/08/03 05:16:14;;;;;;;2.53;2.30;;;15.10;99.90;;;;;;5034730;28;20309;-68
2021/08/03 05:18:41;;;;;;;3.85;2.47;;;15.10;99.90;;;;;;5034716;28;20227;-68
2021/08/03 05:21:10;;;;;;;2.55;2.28;;;15.10;99.90;;;;;;5034997;28;20202;-68
2021/08/03 05:23:37;;;;;;;2.42;2.22;;;15.20;99.90;;;;;;5034754;28;20205;-68
2021/08/03 05:26:03;;;;;;;2.53;2.33;;;15.10;99.90;;;;;;5034768;28;20316;-69
2021/08/03 05:28:30;;;;;;;2.60;2.35;;;15.10;99.90;;;;;;5034843;28;20227;-69
2021/08/03 05:30:57;;;;;;;3.40;2.35;;;15.00;99.90;;;;;;5034784;28;20206;-68
2021/08/03 05:33:24;;;;;;;3.63;2.25;;;15.00;99.90;;;;;;5034642;28;20234;-69
2021/08/03 05:35:51;;;;;;;2.40;2.20;;;15.00;99.90;;;;;;5033508;28;20297;-69
2021/08/03 05:38:19;;;;;;;2.47;2.28;;;15.00;99.90;;;;;;5034354;28;20229;-69
2021/08/03 05:40:46;;;;;;;2.15;2.05;;;15.00;99.90;;;;;;5034622;28;20298;-68
2021/08/03 05:43:13;;;;;;;2.97;2.67;;;15.00;99.90;;;;;;5034467;28;20672;-69
2021/08/03 05:45:40;;;;;;;4.30;2.60;;;15.00;99.90;;;;;;5034166;28;20300;-69
2021/08/03 05:48:07;;;;;;;2.88;2.30;;;15.00;99.90;;;;;;5034478;28;20231;-69
2021/08/03 05:50:34;;;;;;;3.33;2.80;;;14.90;99.90;;;;;;5034413;28;20217;-68
2021/08/03 05:53:01;;;;;;;3.60;2.40;;;15.00;99.90;;;;;;5034328;28;20230;-69
2021/08/03 05:55:29;;;;;;;2.30;2.10;;;15.10;99.90;;;;;;5034235;28;20215;-69
2021/08/03 05:57:56;;;;;;;2.30;2.10;;;15.10;99.90;;;;;;5034074;28;20313;-69
2021/08/03 06:00:23;;;;;;;2.25;2.15;;;15.20;99.90;;;;;;5033961;28;20381;-69
2021/08/03 06:02:50;;;;;;;2.80;2.30;;;15.30;99.90;;;;;;5034243;28;20573;-69
2021/08/03 06:05:16;;;;;;;2.45;2.20;;;15.40;99.90;;;;;;5033983;28;20207;-69
2021/08/03 06:07:45;;;;;;;2.83;2.13;;;15.50;99.90;;;;;;5033806;28;20321;-69
2021/08/03 06:10:13;;;;;;;3.28;2.30;;;15.60;99.90;;;;;;5033833;28;20657;-69
2021/08/03 06:12:46;;;;;;;2.35;2.15;;;15.60;99.90;;;;;;5033963;28;20240;-69
2021/08/03 06:15:13;;;;;;;2.40;2.20;;;15.70;99.90;;;;;;5033663;28;20752;-69
2021/08/03 06:17:45;;;;;;;2.45;2.13;;;15.80;99.90;;;;;;5033717;28;20713;-68
2021/08/03 06:20:13;;;;;;;4.10;2.75;;;15.90;99.90;;;;;;5033846;28;20211;-68
2021/08/03 06:22:40;;;;;;;4.63;2.58;;;15.90;99.90;;;;;;5033883;28;20262;-68
2021/08/03 06:25:09;;;;;;;5.28;3.22;;;15.90;99.90;;;;;;5033642;28;20299;-69
2021/08/03 06:27:36;;;;;;;3.08;2.65;;;15.90;99.90;;;;;;5033848;28;20226;-69
2021/08/03 06:30:06;;;;;;;2.22;2.00;;;15.90;99.90;;;;;;5033707;28;20211;-69
2021/08/03 06:32:33;;;;;;;2.33;2.10;;;15.90;99.90;;;;;;5034142;28;20214;-69
2021/08/03 06:35:01;;;;;;;3.70;2.30;;;16.00;99.90;;;;;;5033612;28;20308;-69
2021/08/03 06:37:28;;;;;;;2.20;2.00;;;16.10;99.90;;;;;;5033537;28;20238;-69
2021/08/03 06:39:54;;;;;;;3.17;2.45;;;16.20;99.90;;;;;;5033827;28;20207;-69
2021/08/03 06:42:32;;;;;;;2.70;2.50;;;16.40;99.90;;;;;;5033552;28;20605;-68
2021/08/03 06:45:03;;;;;;;2.90;2.70;;;16.50;99.90;;;;;;5033901;28;20200;-69
2021/08/03 06:47:43;;;;;;;2.60;2.20;;;16.70;99.90;;;;;;5033143;28;20235;-69
2021/08/03 06:50:13;;;;;;;2.63;2.30;;;16.90;99.90;;;;;;5033700;28;20191;-69
2021/08/03 06:52:39;;;;;;;2.00;1.90;;;17.00;99.90;;;;;;5033378;28;20199;-68
2021/08/03 06:55:08;;;;;;;1.80;1.70;;;17.30;99.90;;;;;;5033342;28;20299;-69
2021/08/03 06:57:36;;;;;;;2.10;1.92;;;17.40;99.90;;;;;;5033411;28;20224;-68
2021/08/03 07:00:07;;;;;;;2.63;1.88;;;17.40;99.90;;;;;;5033175;28;20212;-69
2021/08/03 07:02:41;;;;;;;2.33;2.13;;;17.50;99.90;;;;;;5033611;28;20559;-69
2021/08/03 07:05:09;;;;;;;2.63;2.15;;;17.60;99.90;;;;;;5033030;28;20232;-69
2021/08/03 07:07:37;;;;;;;2.15;2.05;;;17.70;99.90;;;;;;5033351;28;20289;-69
2021/08/03 07:10:06;;;;;;;2.40;2.20;;;17.70;99.90;;;;;;5033391;28;20215;-69
2021/08/03 07:12:34;;;;;;;2.80;2.42;;;17.90;99.90;;;;;;5033239;28;20661;-69
2021/08/03 07:15:01;;;;;;;2.47;2.28;;;17.90;99.90;;;;;;5033080;28;20234;-69
2021/08/03 07:17:30;;;;;;;4.90;2.85;;;18.00;99.90;;;;;;5032998;28;20239;-69
2021/08/03 07:19:59;;;;;;;6.47;3.35;;;18.10;99.90;;;;;;5033080;28;20553;-69
2021/08/03 07:22:26;;;;;;;2.72;2.47;;;18.00;99.90;;;;;;5033154;28;20208;-69
2021/08/03 07:24:54;;;;;;;3.20;2.83;;;18.20;99.90;;;;;;5032930;28;20211;-69
2021/08/03 07:27:21;;;;;;;2.17;2.00;;;18.30;99.90;;;;;;5033150;28;20231;-69
2021/08/03 07:29:48;;;;;;;2.33;1.95;;;18.30;99.90;;;;;;5033241;28;20236;-69
2021/08/03 07:32:16;;;;;;;1.70;1.60;;;18.50;99.90;;;;;;5033112;28;20670;-69
2021/08/03 07:34:43;;;;;;;2.38;2.00;;;18.60;99.90;;;;;;5033034;28;20258;-70
2021/08/03 07:37:13;;;;;;;1.50;1.40;;;18.70;99.90;;;;;;5033028;28;20253;-69
2021/08/03 07:39:40;;;;;;;1.98;1.77;;;18.80;99.90;;;;;;5033391;28;20295;-69
2021/08/03 07:42:08;;;;;;;1.20;1.20;;;19.00;99.90;;;;;;5033034;28;20208;-69
2021/08/03 07:44:35;;;;;;;1.40;1.40;;;19.10;99.90;;;;;;5032971;28;20526;-69
2021/08/03 07:47:03;;;;;;;1.70;1.50;;;19.10;99.90;;;;;;5032780;28;20448;-69
2021/08/03 07:49:29;;;;;;;1.80;1.70;;;19.20;99.90;;;;;;5032756;28;20965;-69
2021/08/03 07:51:57;;;;;;;1.52;1.42;;;19.00;99.90;;;;;;5033057;28;20539;-69
2021/08/03 07:54:25;;;;;;;2.22;2.03;;;18.80;99.90;;;;;;5033121;28;20217;-69
2021/08/03 07:56:52;;;;;;;2.08;1.98;;;18.70;99.90;;;;;;5032686;28;20210;-69
2021/08/03 07:59:19;;;;;;;2.80;2.55;;;18.70;99.90;;;;;;5035609;28;20201;-69
2021/08/03 08:01:46;;;;;;;1.97;1.87;;;18.70;99.90;;;;;;5036564;28;20571;-69
2021/08/03 08:04:12;;;;;;;2.70;2.47;;;18.80;99.90;;;;;;5036460;28;20542;-69
2021/08/03 08:06:39;;;;;;;2.35;2.25;;;18.90;99.90;;;;;;5036274;28;20297;-69
2021/08/03 08:09:06;;;;;;;2.50;2.30;;;19.00;99.90;;;;;;5036053;28;20221;-69
2021/08/03 08:11:34;;;;;;;2.33;2.17;;;19.10;99.90;;;;;;5036252;28;20479;-69
2021/08/03 08:14:01;;;;;;;2.00;1.87;;;19.20;99.90;;;;;;5036197;28;20568;-69
2021/08/03 08:16:28;;;;;;;2.90;2.37;;;19.30;99.90;;;;;;5035746;28;20460;-69
2021/08/03 08:18:55;;;;;;;2.13;1.97;;;19.40;99.90;;;;;;5035870;28;21005;-69
2021/08/03 08:21:21;;;;;;;1.80;1.70;;;19.60;99.90;;;;;;5036187;28;20444;-69
2021/08/03 08:23:48;;;;;;;2.50;2.30;;;19.70;99.90;;;;;;5036079;28;20475;-69
2021/08/03 08:26:15;;;;;;;3.30;2.40;;;19.60;99.90;;;;;;5035691;28;20544;-69
2021/08/03 08:28:43;;;;;;;2.23;1.73;;;19.50;99.90;;;;;;5035692;28;20982;-69
2021/08/03 08:31:10;;;;;;;1.90;1.80;;;19.40;99.90;;;;;;5035838;28;20449;-69
2021/08/03 08:33:37;;;;;;;2.03;1.83;;;19.40;99.90;;;;;;5035799;28;20483;-69
2021/08/03 08:36:04;;;;;;;2.10;1.83;;;19.40;99.90;;;;;;5035645;28;20980;-69
2021/08/03 08:38:31;;;;;;;2.20;2.00;;;19.50;99.90;;;;;;5035741;28;20470;-69
2021/08/03 08:40:57;;;;;;;1.47;1.47;;;19.60;99.90;;;;;;5035773;28;20442;-69
2021/08/03 08:43:26;;;;;;;1.90;1.73;;;19.60;99.90;;;;;;5035482;28;20510;-69
2021/08/03 08:45:56;;;;;;;2.07;1.93;;;19.70;99.90;;;;;;5035541;28;20452;-69
2021/08/03 08:48:23;;;;;;;1.80;1.70;;;19.70;99.90;;;;;;5035739;28;20478;-69
2021/08/03 08:50:54;;;;;;;1.57;1.47;;;19.80;99.90;;;;;;5035650;28;20446;-69
2021/08/03 08:53:24;;;;;;;2.47;1.83;;;19.90;99.90;;;;;;5035696;28;20448;-69
2021/08/03 08:55:51;;;;;;;1.60;1.50;;;19.90;99.90;;;;;;5035233;28;20947;-69
2021/08/03 08:58:18;;;;;;;1.70;1.60;;;20.00;99.90;;;;;;5035734;28;20473;-69
2021/08/03 09:00:44;;;;;;;1.67;1.57;;;20.10;99.90;;;;;;5035461;28;20545;-69
2021/08/03 09:03:13;;;;;;;1.70;1.60;;;20.10;99.90;;;;;;5035317;28;20536;-69
2021/08/03 09:05:41;;;;;;;1.43;1.33;;;20.20;99.90;;;;;;5034927;28;20449;-69
2021/08/03 09:08:10;;;;;;;1.73;1.53;;;20.30;99.90;;;;;;5035689;28;20474;-69
2021/08/03 09:10:39;;;;;;;1.50;1.40;;;20.40;99.90;;;;;;5035089;28;20450;-69
2021/08/03 09:13:09;;;;;;;1.70;1.60;;;20.50;99.90;;;;;;5035062;28;20923;-69
2021/08/03 09:15:38;;;;;;;1.60;1.40;;;20.60;99.90;;;;;;5034782;28;20858;-69
2021/08/03 09:18:17;;;;;;;1.50;1.40;;;20.60;99.90;;;;;;5034775;28;20477;-69
2021/08/03 09:20:46;;;;;;;1.70;1.60;;;20.60;99.90;;;;;;5035046;28;20453;-69
2021/08/03 09:23:13;;;;;;;3.13;1.70;;;20.70;99.90;;;;;;5035014;28;20541;-69
2021/08/03 09:25:51;;;;;;;1.40;1.30;;;20.70;99.90;;;;;;5034764;28;20446;-69
2021/08/03 09:28:18;;;;;;;1.77;1.67;;;20.50;99.90;;;;;;5035546;28;20481;-69
2021/08/03 09:30:44;;;;;;;1.50;1.40;;;20.40;99.90;;;;;;5034851;28;20457;-69
2021/08/03 09:33:23;;;;;;;2.60;1.57;;;20.30;99.90;;;;;;5034838;28;20468;-69
2021/08/03 09:35:50;;;;;;;1.70;1.60;;;19.90;99.90;;;;;;5034377;28;20989;-69
2021/08/03 09:38:19;;;;;;;1.92;1.83;;;19.50;99.90;;;;;;5034920;28;20463;-69
2021/08/03 09:40:48;;;;;;;1.63;1.52;;;19.00;99.90;;;;;;5034627;28;20215;-69
2021/08/03 09:43:16;;;;;;;1.55;1.45;;;18.60;99.90;;;;;;5034681;28;20216;-68
2021/08/03 09:46:00;;;;;;;1.90;1.80;;;18.50;99.90;;;;;;5034208;28;20223;-68
2021/08/03 09:48:30;;;;;;;1.40;1.38;;;18.10;99.90;;;;;;5034503;28;20314;-68
2021/08/03 09:51:06;;;;;;;1.88;1.30;;;18.00;99.90;;;;;;5034473;28;20294;-68
2021/08/03 09:53:41;;;;;;;1.10;1.10;;;17.80;99.90;;;;;;5034407;28;20604;-68
2021/08/03 09:56:11;;;;;;;1.70;1.40;;;17.90;99.90;;;;;;5034201;28;20200;-68
2021/08/03 09:58:56;;;;;;;1.13;1.02;;;17.90;99.90;;;;;;5034340;28;20228;-68
2021/08/03 10:01:25;;;;;;;1.08;1.08;;;18.00;99.90;;;;;;5035004;28;20546;-68
2021/08/03 10:03:54;;;;;;;1.50;1.33;;;17.90;99.90;;;;;;5034015;28;20291;-68
2021/08/03 10:06:22;;;;;;;1.13;1.13;;;17.90;99.90;;;;;;5033832;28;20207;-68
2021/08/03 10:08:49;;;;;;;1.50;1.30;;;17.70;99.90;;;;;;5034166;28;20228;-68
2021/08/03 10:11:17;;;;;;;1.20;1.10;;;17.30;99.90;;;;;;5034139;28;20200;-68
2021/08/03 10:13:45;;;;;;;1.10;1.00;;;17.30;99.90;;;;;;5033977;28;20283;-68
2021/08/03 10:16:12;;;;;;;1.25;1.15;;;17.20;99.90;;;;;;5033621;28;20581;-68
2021/08/03 10:18:40;;;;;;;1.65;1.55;;;17.30;99.90;;;;;;5033799;28;20597;-68
2021/08/03 10:21:16;;;;;;;1.42;1.33;;;17.20;99.90;;;;;;5033170;28;20266;-68
2021/08/03 10:23:45;;;;;;;1.13;1.05;;;17.20;99.90;;;;;;5034012;28;20207;-68
2021/08/03 10:26:14;;;;;;;1.30;1.30;;;17.20;99.90;;;;;;5033776;28;20210;-68
2021/08/03 10:28:42;;;;;;;1.30;1.20;;;17.30;99.90;;;;;;5033552;28;20674;-68
2021/08/03 10:31:36;;;;;;;1.33;1.23;;;17.30;99.90;;;;;;5033766;28;20210;-68
2021/08/03 10:34:03;;;;;;;1.50;1.40;;;17.50;99.90;;;;;;5033764;28;20567;-68
2021/08/03 10:36:49;;;;;;;1.67;1.58;;;17.70;99.90;;;;;;5033643;28;20291;-68
2021/08/03 10:39:17;;;;;;;1.50;1.40;;;17.60;99.90;;;;;;5033548;28;20194;-68
2021/08/03 10:42:07;;;;;;;2.05;1.48;;;17.70;99.90;;;;;;5033632;28;20729;-68
2021/08/03 10:44:46;;;;;;;1.20;1.20;;;17.60;99.90;;;;;;5033649;28;20204;-68
2021/08/03 10:47:46;;;;;;;1.50;1.40;;;17.60;99.90;;;;;;5033407;28;20266;-68
2021/08/03 10:50:16;;;;;;;1.30;1.20;;;17.70;99.90;;;;;;5033649;28;20291;-68
2021/08/03 10:52:58;;;;;;;1.92;1.20;;;18.10;99.90;;;;;;5033572;28;20204;-68
2021/08/03 10:55:40;;;;;;;1.50;1.40;;;18.50;99.90;;;;;;5033317;28;20702;-68
2021/08/03 10:58:20;;;;;;;1.50;1.40;;;18.50;99.90;;;;;;5033569;28;20263;-69
2021/08/03 11:00:49;;;;;;;1.38;1.27;;;18.50;99.90;;;;;;5033628;28;20204;-68
2021/08/03 11:03:41;;;;;;;1.63;1.52;;;18.50;99.90;;;;;;5033444;28;20206;-68
2021/08/03 11:06:35;;;;;;;1.40;1.30;;;18.40;99.90;;;;;;5033313;28;20204;-68
2021/08/03 11:09:34;;;;;;;1.83;1.63;;;18.60;99.90;;;;;;5033504;28;20267;-68
2021/08/03 11:12:36;;;;;;;1.30;1.23;;;18.70;99.90;;;;;;5033550;28;20204;-68
2021/08/03 11:15:40;;;;;;;1.53;1.43;;;18.80;99.90;;;;;;5033069;28;20228;-68
2021/08/03 11:18:15;;;;;;;1.40;1.30;;;19.00;99.90;;;;;;5033565;28;20455;-68
2021/08/03 11:21:13;;;;;;;1.50;1.40;;;19.20;99.90;;;;;;5033386;28;20444;-68
2021/08/03 11:24:16;;;;;;;1.73;1.60;;;19.30;99.90;;;;;;5033285;28;20478;-69
2021/08/03 11:26:52;;;;;;;1.53;1.43;;;19.50;99.90;;;;;;5033043;28;20931;-69
2021/08/03 11:29:20;;;;;;;7.70;6.00;;;19.60;99.90;;;;;;5033327;28;20855;-69
2021/08/03 11:31:50;;;;;;;3.70;3.40;;;19.70;99.90;;;;;;5033143;28;20536;-69
2021/08/03 11:34:21;;;;;;;1.80;1.70;;;19.60;99.90;;;;;;5036170;28;20467;-68
2021/08/03 11:36:57;;;;;;;1.80;1.70;;;19.70;99.90;;;;;;5036618;28;20931;-69
2021/08/03 11:39:24;;;;;;;2.17;1.97;;;19.80;99.90;;;;;;5036963;28;20452;-69
2021/08/03 11:41:53;;;;;;;1.80;1.70;;;19.80;99.90;;;;;;5036792;28;20441;-69
2021/08/03 11:44:21;;;;;;;2.20;2.00;;;20.00;99.90;;;;;;5036646;28;20452;-69
2021/08/03 11:46:55;;;;;;;2.63;2.03;;;20.30;99.90;;;;;;5036551;28;20811;-69
2021/08/03 11:49:28;;;;;;;1.90;1.80;;;20.60;99.90;;;;;;5036564;28;20986;-69
2021/08/03 11:52:06;;;;;;;2.70;2.47;;;20.90;99.90;;;;;;5036661;28;20805;-69
2021/08/03 11:54:33;;;;;;;2.00;1.90;;;21.10;99.90;;;;;;5036566;28;20489;-69
2021/08/03 11:57:01;;;;;;;1.87;1.77;;;21.20;99.90;;;;;;5036297;28;20547;-69
2021/08/03 11:59:31;;;;;;;1.90;1.80;;;21.40;99.90;;;;;;5036680;28;20456;-69
2021/08/03 12:01:57;;;;;;;1.93;1.83;;;21.40;99.90;;;;;;5036330;28;20446;-69
2021/08/03 12:04:25;;;;;;;1.70;1.60;;;21.20;99.90;;;;;;5036341;28;20456;-69
2021/08/03 12:06:53;;;;;;;2.17;1.97;;;21.20;99.90;;;;;;5036192;28;20474;-69
2021/08/03 12:09:21;;;;;;;1.87;1.77;;;21.10;99.90;;;;;;5036374;28;20450;-68
2021/08/03 12:11:58;;;;;;;1.53;1.43;;;21.10;99.90;;;;;;5036375;28;20533;-69
2021/08/03 12:14:34;;;;;;;1.50;1.40;;;21.00;99.90;;;;;;5036262;28;20485;-69
2021/08/03 12:17:00;;;;;;;2.03;1.93;;;20.90;99.90;;;;;;5035695;28;20943;-69
2021/08/03 12:19:28;;;;;;;2.00;1.90;;;20.90;99.90;;;;;;5035921;28;20464;-69
2021/08/03 12:21:56;;;;;;;1.90;1.80;;;20.80;99.90;;;;;;5036627;28;20448;-68
2021/08/03 12:24:23;;;;;;;1.73;1.63;;;20.80;99.90;;;;;;5036134;28;20450;-69
2021/08/03 12:27:05;;;;;;;1.87;1.67;;;20.70;99.90;;;;;;5035819;28;20540;-69
2021/08/03 12:29:36;;;;;;;1.87;1.77;;;20.70;99.90;;;;;;5035760;28;20449;-68
2021/08/03 12:32:03;;;;;;;1.40;1.30;;;20.70;99.90;;;;;;5035691;28;20476;-69
2021/08/03 12:34:36;;;;;;;1.83;1.73;;;20.60;99.90;;;;;;5035662;28;20513;-69
2021/08/03 12:37:05;;;;;;;1.40;1.30;;;20.60;99.90;;;;;;5035506;28;20946;-69
2021/08/03 12:39:39;;;;;;;1.23;1.20;;;20.40;99.90;;;;;;5035995;28;20450;-69
2021/08/03 12:42:10;;;;;;;1.37;1.27;;;20.30;99.90;;;;;;5035888;28;20471;-69
2021/08/03 12:44:40;;;;;;;1.50;1.40;;;20.20;99.90;;;;;;5035240;28;20495;-69
2021/08/03 12:47:12;;;;;;;1.50;1.40;;;20.20;99.90;;;;;;5035500;28;20470;-69
2021/08/03 12:49:40;;;;;;;1.10;1.10;;;20.20;99.90;;;;;;5035744;28;20439;-69
2021/08/03 12:52:12;;;;;;;0.90;0.90;;;20.40;99.90;;;;;;5035583;28;20452;-69
2021/08/03 12:54:39;;;;;;;1.17;1.07;;;20.80;99.90;;;;;;5035983;28;20460;-69
2021/08/03 12:57:06;;;;;;;1.10;1.10;;;21.20;99.90;;;;;;5035224;28;20553;-69
2021/08/03 12:59:35;;;;;;;1.10;1.10;;;21.50;99.90;;;;;;5035466;28;20446;-69
2021/08/03 13:02:04;;;;;;;1.67;1.57;;;21.80;99.90;;;;;;5035436;28;20794;-69